IND weather

Indianapolis International Airport
Indianapolis, Indiana, United States

Public forecast

Using degrees Fahrenheit for public forecast. Weather courtesy of forecast.io.

METAR (pilot weather report)

Retrieved 2019/05/20 15:54 UTC (12 minutes ago):

KIND 201554Z 26010KT 10SM OVC032 15/09 A3005 RMK AO2 SLP172 T01500089

TAF (pilot weather forecast)

Retrieved 2019/05/20 12:22 UTC (4 hours ago):

TAF KIND 201120Z 2012/2118 28008KT P6SM SCT120 FM201700 30013KT P6SM BKN040 FM202200 32011KT P6SM SCT100 FM210900 06009KT P6SM BKN120